sensor_id;sensor_type;location;lat;lon;timestamp;pressure;altitude;pressure_sealevel;temperature;humidity
77897;BME280;67092;64.282;21.056;2023-05-29T00:00:51;100896.87;;;20.41;29.17
77897;BME280;67092;64.282;21.056;2023-05-29T00:03:16;100899.49;;;20.43;29.11
77897;BME280;67092;64.282;21.056;2023-05-29T00:05:42;100901.34;;;20.84;28.62
77897;BME280;67092;64.282;21.056;2023-05-29T00:08:07;100904.10;;;20.48;28.94
77897;BME280;67092;64.282;21.056;2023-05-29T00:10:33;100915.19;;;20.67;28.70
77897;BME280;67092;64.282;21.056;2023-05-29T00:12:58;100910.27;;;20.41;28.99
77897;BME280;67092;64.282;21.056;2023-05-29T00:15:24;100910.29;;;20.25;28.91
77897;BME280;67092;64.282;21.056;2023-05-29T00:17:49;100910.02;;;20.95;28.32
77897;BME280;67092;64.282;21.056;2023-05-29T00:20:15;100912.34;;;20.29;28.76
77897;BME280;67092;64.282;21.056;2023-05-29T00:22:41;100915.53;;;20.47;28.78
77897;BME280;67092;64.282;21.056;2023-05-29T00:25:07;100918.81;;;20.72;28.79
77897;BME280;67092;64.282;21.056;2023-05-29T00:27:32;100923.14;;;20.08;28.91
77897;BME280;67092;64.282;21.056;2023-05-29T00:29:58;100922.81;;;20.26;28.98
77897;BME280;67092;64.282;21.056;2023-05-29T00:32:23;100924.35;;;20.37;28.79
77897;BME280;67092;64.282;21.056;2023-05-29T00:34:49;100919.69;;;20.25;28.88
77897;BME280;67092;64.282;21.056;2023-05-29T00:37:14;100919.19;;;20.15;28.95
77897;BME280;67092;64.282;21.056;2023-05-29T00:39:40;100918.94;;;20.69;28.55
77897;BME280;67092;64.282;21.056;2023-05-29T00:42:06;100918.90;;;20.18;28.81
77897;BME280;67092;64.282;21.056;2023-05-29T00:44:31;100928.51;;;20.01;29.33
77897;BME280;67092;64.282;21.056;2023-05-29T00:46:57;100925.69;;;20.34;28.70
77897;BME280;67092;64.282;21.056;2023-05-29T00:49:23;100922.23;;;20.71;28.53
77897;BME280;67092;64.282;21.056;2023-05-29T00:51:48;100930.39;;;20.18;28.80
77897;BME280;67092;64.282;21.056;2023-05-29T00:54:20;100932.33;;;20.00;28.98
77897;BME280;67092;64.282;21.056;2023-05-29T00:56:39;100930.65;;;19.80;29.13
77897;BME280;67092;64.282;21.056;2023-05-29T00:59:05;100929.89;;;20.13;29.03
77897;BME280;67092;64.282;21.056;2023-05-29T01:01:30;100929.22;;;19.81;29.07
77897;BME280;67092;64.282;21.056;2023-05-29T01:03:56;100921.87;;;20.17;28.59
77897;BME280;67092;64.282;21.056;2023-05-29T01:06:22;100924.17;;;18.97;28.85
77897;BME280;67092;64.282;21.056;2023-05-29T01:08:47;100924.23;;;20.60;28.03
77897;BME280;67092;64.282;21.056;2023-05-29T01:11:19;100923.79;;;20.59;27.99
77897;BME280;67092;64.282;21.056;2023-05-29T01:13:40;100925.92;;;20.35;28.21
77897;BME280;67092;64.282;21.056;2023-05-29T01:16:08;100925.63;;;20.22;28.32
77897;BME280;67092;64.282;21.056;2023-05-29T01:18:37;100937.24;;;19.78;28.80
77897;BME280;67092;64.282;21.056;2023-05-29T01:21:03;100938.09;;;19.89;28.66
77897;BME280;67092;64.282;21.056;2023-05-29T01:25:58;100937.10;;;19.84;28.59
77897;BME280;67092;64.282;21.056;2023-05-29T01:28:13;100938.47;;;20.52;27.90
77897;BME280;67092;64.282;21.056;2023-05-29T01:30:39;100943.26;;;19.95;28.41
77897;BME280;67092;64.282;21.056;2023-05-29T01:33:04;100950.07;;;20.37;28.21
77897;BME280;67092;64.282;21.056;2023-05-29T01:35:29;100957.90;;;19.93;28.64
77897;BME280;67092;64.282;21.056;2023-05-29T01:37:55;100959.08;;;19.99;28.28
77897;BME280;67092;64.282;21.056;2023-05-29T01:40:20;100961.68;;;20.08;28.45
77897;BME280;67092;64.282;21.056;2023-05-29T01:42:46;100959.54;;;19.94;28.34
77897;BME280;67092;64.282;21.056;2023-05-29T01:45:12;100954.17;;;20.04;28.41
77897;BME280;67092;64.282;21.056;2023-05-29T01:47:37;100953.68;;;20.73;27.95
77897;BME280;67092;64.282;21.056;2023-05-29T01:50:04;100954.69;;;20.13;28.23
77897;BME280;67092;64.282;21.056;2023-05-29T01:52:28;100953.17;;;19.69;28.43
77897;BME280;67092;64.282;21.056;2023-05-29T01:54:54;100956.33;;;19.76;28.34
77897;BME280;67092;64.282;21.056;2023-05-29T01:57:20;100954.37;;;19.84;28.24
77897;BME280;67092;64.282;21.056;2023-05-29T01:59:45;100954.94;;;20.09;27.92
77897;BME280;67092;64.282;21.056;2023-05-29T02:02:11;100954.84;;;19.89;28.11
77897;BME280;67092;64.282;21.056;2023-05-29T02:04:36;100955.27;;;19.85;28.10
77897;BME280;67092;64.282;21.056;2023-05-29T02:07:02;100959.06;;;19.93;28.04
77897;BME280;67092;64.282;21.056;2023-05-29T02:09:27;100963.12;;;20.12;28.04
77897;BME280;67092;64.282;21.056;2023-05-29T02:11:53;100963.31;;;20.25;27.91
77897;BME280;67092;64.282;21.056;2023-05-29T02:14:19;100964.83;;;20.08;28.34
77897;BME280;67092;64.282;21.056;2023-05-29T02:16:44;100964.44;;;19.60;28.31
77897;BME280;67092;64.282;21.056;2023-05-29T02:19:10;100957.67;;;20.24;27.83
77897;BME280;67092;64.282;21.056;2023-05-29T02:21:39;100962.42;;;19.76;28.12
77897;BME280;67092;64.282;21.056;2023-05-29T02:24:01;100955.01;;;19.99;28.12
77897;BME280;67092;64.282;21.056;2023-05-29T02:26:27;100955.26;;;20.06;27.74
77897;BME280;67092;64.282;21.056;2023-05-29T02:28:52;100953.94;;;20.14;27.87
77897;BME280;67092;64.282;21.056;2023-05-29T02:31:18;100961.52;;;19.77;28.26
77897;BME280;67092;64.282;21.056;2023-05-29T02:33:43;100961.70;;;19.49;28.50
77897;BME280;67092;64.282;21.056;2023-05-29T02:36:09;100965.64;;;19.98;28.00
77897;BME280;67092;64.282;21.056;2023-05-29T02:38:35;100962.84;;;20.10;28.11
77897;BME280;67092;64.282;21.056;2023-05-29T02:41:00;100967.35;;;19.71;28.23
77897;BME280;67092;64.282;21.056;2023-05-29T02:43:26;100969.40;;;20.09;27.88
77897;BME280;67092;64.282;21.056;2023-05-29T02:45:52;100966.13;;;19.80;28.13
77897;BME280;67092;64.282;21.056;2023-05-29T02:48:17;100966.53;;;19.61;28.07
77897;BME280;67092;64.282;21.056;2023-05-29T02:50:43;100969.86;;;19.92;28.00
77897;BME280;67092;64.282;21.056;2023-05-29T02:53:08;100970.22;;;19.65;28.01
77897;BME280;67092;64.282;21.056;2023-05-29T02:55:34;100978.35;;;19.86;28.01
77897;BME280;67092;64.282;21.056;2023-05-29T02:58:00;100982.66;;;19.86;28.29
77897;BME280;67092;64.282;21.056;2023-05-29T03:00:25;100982.93;;;19.51;28.39
77897;BME280;67092;64.282;21.056;2023-05-29T03:02:51;100981.47;;;19.70;27.92
77897;BME280;67092;64.282;21.056;2023-05-29T03:05:16;100975.62;;;19.77;28.30
77897;BME280;67092;64.282;21.056;2023-05-29T03:07:42;100977.72;;;19.67;27.86
77897;BME280;67092;64.282;21.056;2023-05-29T03:10:09;100975.46;;;19.84;27.94
77897;BME280;67092;64.282;21.056;2023-05-29T03:12:33;100966.53;;;19.84;28.11
77897;BME280;67092;64.282;21.056;2023-05-29T03:14:59;100967.03;;;19.73;28.01
77897;BME280;67092;64.282;21.056;2023-05-29T03:17:25;100961.67;;;19.42;28.29
77897;BME280;67092;64.282;21.056;2023-05-29T03:19:50;100963.85;;;19.87;27.84
77897;BME280;67092;64.282;21.056;2023-05-29T03:22:16;100970.19;;;19.40;28.34
77897;BME280;67092;64.282;21.056;2023-05-29T03:24:41;100977.87;;;19.77;28.17
77897;BME280;67092;64.282;21.056;2023-05-29T03:27:07;100987.92;;;19.56;28.08
77897;BME280;67092;64.282;21.056;2023-05-29T03:29:33;100990.29;;;19.36;28.30
77897;BME280;67092;64.282;21.056;2023-05-29T03:31:58;100991.63;;;19.34;28.07
77897;BME280;67092;64.282;21.056;2023-05-29T03:34:24;100995.37;;;19.34;28.29
77897;BME280;67092;64.282;21.056;2023-05-29T03:36:49;100997.92;;;19.61;28.01
77897;BME280;67092;64.282;21.056;2023-05-29T03:39:15;101000.81;;;20.12;27.42
77897;BME280;67092;64.282;21.056;2023-05-29T03:41:41;101003.65;;;19.75;28.02
77897;BME280;67092;64.282;21.056;2023-05-29T03:44:06;101002.85;;;19.60;27.95
77897;BME280;67092;64.282;21.056;2023-05-29T03:46:32;100999.14;;;19.44;28.12
77897;BME280;67092;64.282;21.056;2023-05-29T03:48:58;100999.11;;;19.45;28.12
77897;BME280;67092;64.282;21.056;2023-05-29T03:51:23;100995.04;;;19.61;28.14
77897;BME280;67092;64.282;21.056;2023-05-29T03:53:49;100994.86;;;19.52;27.93
77897;BME280;67092;64.282;21.056;2023-05-29T03:56:14;100996.05;;;19.56;27.58
77897;BME280;67092;64.282;21.056;2023-05-29T03:58:40;100996.28;;;19.75;27.61
77897;BME280;67092;64.282;21.056;2023-05-29T04:01:06;101001.26;;;19.35;27.76
77897;BME280;67092;64.282;21.056;2023-05-29T04:03:31;100993.84;;;19.64;27.68
77897;BME280;67092;64.282;21.056;2023-05-29T04:05:57;101003.33;;;19.62;27.70
77897;BME280;67092;64.282;21.056;2023-05-29T04:08:22;101004.76;;;19.42;27.92
77897;BME280;67092;64.282;21.056;2023-05-29T04:10:48;101008.76;;;19.59;27.96
77897;BME280;67092;64.282;21.056;2023-05-29T04:13:14;101010.62;;;19.55;27.95
77897;BME280;67092;64.282;21.056;2023-05-29T04:15:39;101011.24;;;19.43;27.82
77897;BME280;67092;64.282;21.056;2023-05-29T04:18:05;101008.69;;;19.70;27.49
77897;BME280;67092;64.282;21.056;2023-05-29T04:20:31;101010.48;;;19.60;27.59
77897;BME280;67092;64.282;21.056;2023-05-29T04:22:56;100996.86;;;19.79;27.37
77897;BME280;67092;64.282;21.056;2023-05-29T04:25:22;101002.97;;;19.48;27.73
77897;BME280;67092;64.282;21.056;2023-05-29T04:27:47;100992.36;;;19.59;27.59
77897;BME280;67092;64.282;21.056;2023-05-29T04:30:13;101000.51;;;19.72;27.68
77897;BME280;67092;64.282;21.056;2023-05-29T04:32:38;101000.31;;;19.51;27.61
77897;BME280;67092;64.282;21.056;2023-05-29T04:35:05;101006.13;;;19.57;27.47
77897;BME280;67092;64.282;21.056;2023-05-29T04:37:30;101000.28;;;20.26;26.81
77897;BME280;67092;64.282;21.056;2023-05-29T04:39:56;101006.11;;;20.13;27.14
77897;BME280;67092;64.282;21.056;2023-05-29T04:42:21;101003.37;;;19.86;27.06
77897;BME280;67092;64.282;21.056;2023-05-29T04:44:47;101010.15;;;19.46;27.48
77897;BME280;67092;64.282;21.056;2023-05-29T04:47:12;101017.99;;;20.12;27.02
77897;BME280;67092;64.282;21.056;2023-05-29T04:49:39;101011.19;;;19.76;27.09
77897;BME280;67092;64.282;21.056;2023-05-29T04:52:04;101009.52;;;19.84;27.00
77897;BME280;67092;64.282;21.056;2023-05-29T04:54:29;101015.17;;;19.89;26.70
77897;BME280;67092;64.282;21.056;2023-05-29T04:56:55;101012.27;;;19.79;27.05
77897;BME280;67092;64.282;21.056;2023-05-29T04:59:20;101017.16;;;20.04;27.02
77897;BME280;67092;64.282;21.056;2023-05-29T05:01:46;101014.04;;;19.81;27.00
77897;BME280;67092;64.282;21.056;2023-05-29T05:04:11;101019.05;;;20.00;27.00
77897;BME280;67092;64.282;21.056;2023-05-29T05:06:37;101019.22;;;19.79;27.16
77897;BME280;67092;64.282;21.056;2023-05-29T05:09:03;101017.44;;;19.62;27.57
77897;BME280;67092;64.282;21.056;2023-05-29T05:11:28;101021.14;;;19.55;27.62
77897;BME280;67092;64.282;21.056;2023-05-29T05:13:54;101021.97;;;19.52;27.38
77897;BME280;67092;64.282;21.056;2023-05-29T05:16:19;101018.35;;;19.37;27.61
77897;BME280;67092;64.282;21.056;2023-05-29T05:18:46;101012.84;;;19.27;27.67
77897;BME280;67092;64.282;21.056;2023-05-29T05:21:11;101014.85;;;19.63;27.50
77897;BME280;67092;64.282;21.056;2023-05-29T05:23:36;101021.16;;;19.71;27.40
77897;BME280;67092;64.282;21.056;2023-05-29T05:26:02;101023.49;;;19.77;27.05
77897;BME280;67092;64.282;21.056;2023-05-29T05:28:27;101026.85;;;19.46;27.66
77897;BME280;67092;64.282;21.056;2023-05-29T05:30:53;101031.52;;;19.69;27.43
77897;BME280;67092;64.282;21.056;2023-05-29T05:33:19;101033.66;;;19.87;27.20
77897;BME280;67092;64.282;21.056;2023-05-29T05:35:44;101032.75;;;19.92;27.10
77897;BME280;67092;64.282;21.056;2023-05-29T05:38:10;101030.24;;;19.71;27.27
77897;BME280;67092;64.282;21.056;2023-05-29T05:40:35;101035.23;;;19.58;27.49
77897;BME280;67092;64.282;21.056;2023-05-29T05:43:01;101033.58;;;19.64;27.39
77897;BME280;67092;64.282;21.056;2023-05-29T05:45:26;101037.58;;;19.35;27.16
77897;BME280;67092;64.282;21.056;2023-05-29T05:47:52;101037.91;;;19.39;27.31
77897;BME280;67092;64.282;21.056;2023-05-29T05:50:18;101034.17;;;19.77;26.91
77897;BME280;67092;64.282;21.056;2023-05-29T05:52:43;101033.68;;;19.57;27.42
77897;BME280;67092;64.282;21.056;2023-05-29T05:55:09;101043.30;;;19.73;27.22
77897;BME280;67092;64.282;21.056;2023-05-29T05:57:35;101035.47;;;20.22;26.73
77897;BME280;67092;64.282;21.056;2023-05-29T06:00:00;101040.12;;;19.66;26.98
77897;BME280;67092;64.282;21.056;2023-05-29T06:02:26;101048.45;;;19.45;27.22
77897;BME280;67092;64.282;21.056;2023-05-29T06:04:51;101058.99;;;19.51;27.13
77897;BME280;67092;64.282;21.056;2023-05-29T06:07:17;101048.91;;;19.40;27.50
77897;BME280;67092;64.282;21.056;2023-05-29T06:09:43;101050.44;;;19.62;27.20
77897;BME280;67092;64.282;21.056;2023-05-29T06:12:09;101057.48;;;19.84;26.99
77897;BME280;67092;64.282;21.056;2023-05-29T06:14:34;101051.90;;;19.92;26.61
77897;BME280;67092;64.282;21.056;2023-05-29T06:17:00;101054.40;;;19.81;27.07
77897;BME280;67092;64.282;21.056;2023-05-29T06:19:25;101055.04;;;19.81;26.99
77897;BME280;67092;64.282;21.056;2023-05-29T06:21:51;101058.68;;;19.59;27.01
77897;BME280;67092;64.282;21.056;2023-05-29T06:24:16;101062.67;;;19.59;27.16
77897;BME280;67092;64.282;21.056;2023-05-29T06:26:41;101061.39;;;19.78;26.70
77897;BME280;67092;64.282;21.056;2023-05-29T06:29:07;101063.68;;;19.49;27.32
77897;BME280;67092;64.282;21.056;2023-05-29T06:31:33;101063.50;;;19.50;27.05
77897;BME280;67092;64.282;21.056;2023-05-29T06:33:58;101057.81;;;19.19;27.33
77897;BME280;67092;64.282;21.056;2023-05-29T06:36:24;101058.72;;;19.36;27.45
77897;BME280;67092;64.282;21.056;2023-05-29T06:38:50;101059.82;;;19.66;27.10
77897;BME280;67092;64.282;21.056;2023-05-29T06:41:15;101063.47;;;19.54;27.01
77897;BME280;67092;64.282;21.056;2023-05-29T06:43:41;101063.54;;;19.84;26.97
77897;BME280;67092;64.282;21.056;2023-05-29T06:46:06;101068.16;;;19.78;26.96
77897;BME280;67092;64.282;21.056;2023-05-29T06:48:33;101067.04;;;19.65;26.85
77897;BME280;67092;64.282;21.056;2023-05-29T06:50:57;101069.62;;;19.86;26.87
77897;BME280;67092;64.282;21.056;2023-05-29T06:53:23;101072.60;;;19.28;26.98
77897;BME280;67092;64.282;21.056;2023-05-29T06:55:49;101070.42;;;19.52;26.93
77897;BME280;67092;64.282;21.056;2023-05-29T06:58:14;101077.34;;;19.56;26.90
77897;BME280;67092;64.282;21.056;2023-05-29T07:00:40;101075.32;;;19.23;26.93
77897;BME280;67092;64.282;21.056;2023-05-29T07:03:06;101080.68;;;19.48;27.27
77897;BME280;67092;64.282;21.056;2023-05-29T07:05:31;101072.76;;;19.51;27.33
77897;BME280;67092;64.282;21.056;2023-05-29T07:07:57;101070.61;;;19.36;27.32
77897;BME280;67092;64.282;21.056;2023-05-29T07:10:22;101075.09;;;19.93;26.89
77897;BME280;67092;64.282;21.056;2023-05-29T07:12:48;101078.94;;;20.15;26.66
77897;BME280;67092;64.282;21.056;2023-05-29T07:15:14;101075.88;;;19.35;26.86
77897;BME280;67092;64.282;21.056;2023-05-29T07:17:39;101073.72;;;19.91;26.55
77897;BME280;67092;64.282;21.056;2023-05-29T07:20:06;101076.63;;;19.72;26.67
77897;BME280;67092;64.282;21.056;2023-05-29T07:22:31;101077.14;;;19.74;26.62
77897;BME280;67092;64.282;21.056;2023-05-29T07:24:56;101076.03;;;19.85;26.69
77897;BME280;67092;64.282;21.056;2023-05-29T07:27:22;101075.28;;;19.61;26.88
77897;BME280;67092;64.282;21.056;2023-05-29T07:29:47;101081.13;;;19.71;26.59
77897;BME280;67092;64.282;21.056;2023-05-29T07:32:13;101079.96;;;19.97;26.32
77897;BME280;67092;64.282;21.056;2023-05-29T07:34:39;101080.66;;;19.62;26.60
77897;BME280;67092;64.282;21.056;2023-05-29T07:37:05;101079.56;;;20.02;26.44
77897;BME280;67092;64.282;21.056;2023-05-29T07:39:30;101075.28;;;19.54;26.69
77897;BME280;67092;64.282;21.056;2023-05-29T07:41:56;101076.70;;;19.58;26.64
77897;BME280;67092;64.282;21.056;2023-05-29T07:44:21;101080.24;;;20.21;26.23
77897;BME280;67092;64.282;21.056;2023-05-29T07:46:47;101082.26;;;19.94;26.32
77897;BME280;67092;64.282;21.056;2023-05-29T07:49:12;101080.99;;;20.18;26.26
77897;BME280;67092;64.282;21.056;2023-05-29T07:51:38;101079.55;;;19.74;26.21
77897;BME280;67092;64.282;21.056;2023-05-29T07:54:04;101072.89;;;19.93;26.28
77897;BME280;67092;64.282;21.056;2023-05-29T07:56:29;101073.96;;;20.12;26.12
77897;BME280;67092;64.282;21.056;2023-05-29T07:58:55;101077.03;;;19.87;26.05
77897;BME280;67092;64.282;21.056;2023-05-29T08:01:20;101066.50;;;20.46;25.68
77897;BME280;67092;64.282;21.056;2023-05-29T08:03:46;101061.41;;;20.39;25.94
77897;BME280;67092;64.282;21.056;2023-05-29T08:06:12;101059.20;;;20.17;25.94
77897;BME280;67092;64.282;21.056;2023-05-29T08:08:37;101059.88;;;20.22;26.01
77897;BME280;67092;64.282;21.056;2023-05-29T08:11:03;101053.08;;;20.57;25.72
77897;BME280;67092;64.282;21.056;2023-05-29T08:13:30;101050.64;;;20.52;25.81
77897;BME280;67092;64.282;21.056;2023-05-29T08:15:54;101054.29;;;20.01;26.14
77897;BME280;67092;64.282;21.056;2023-05-29T08:18:20;101059.43;;;19.92;26.46
77897;BME280;67092;64.282;21.056;2023-05-29T08:20:45;101053.51;;;19.92;26.26
77897;BME280;67092;64.282;21.056;2023-05-29T08:23:11;101051.84;;;19.79;26.39
77897;BME280;67092;64.282;21.056;2023-05-29T08:25:36;101050.24;;;20.36;26.26
77897;BME280;67092;64.282;21.056;2023-05-29T08:28:02;101047.81;;;19.90;26.46
77897;BME280;67092;64.282;21.056;2023-05-29T08:30:28;101041.89;;;20.00;26.36
77897;BME280;67092;64.282;21.056;2023-05-29T08:32:53;101039.53;;;20.46;25.86
77897;BME280;67092;64.282;21.056;2023-05-29T08:35:19;101048.91;;;20.33;25.77
77897;BME280;67092;64.282;21.056;2023-05-29T08:37:45;101044.65;;;20.03;26.20
77897;BME280;67092;64.282;21.056;2023-05-29T08:40:11;101046.28;;;20.02;26.54
77897;BME280;67092;64.282;21.056;2023-05-29T08:42:43;101040.94;;;20.21;26.62
77897;BME280;67092;64.282;21.056;2023-05-29T08:45:03;101041.96;;;20.22;26.71
77897;BME280;67092;64.282;21.056;2023-05-29T08:47:27;101039.71;;;20.15;26.74
77897;BME280;67092;64.282;21.056;2023-05-29T08:49:53;101043.46;;;20.54;26.53
77897;BME280;67092;64.282;21.056;2023-05-29T08:52:21;101036.62;;;20.40;26.40
77897;BME280;67092;64.282;21.056;2023-05-29T08:54:44;101036.78;;;20.12;26.88
77897;BME280;67092;64.282;21.056;2023-05-29T08:57:10;101035.60;;;20.24;26.79
77897;BME280;67092;64.282;21.056;2023-05-29T08:59:37;101044.19;;;19.86;26.89
77897;BME280;67092;64.282;21.056;2023-05-29T09:02:01;101035.07;;;19.82;27.10
77897;BME280;67092;64.282;21.056;2023-05-29T09:04:27;101031.73;;;19.96;26.71
77897;BME280;67092;64.282;21.056;2023-05-29T09:06:52;101030.60;;;20.01;26.84
77897;BME280;67092;64.282;21.056;2023-05-29T09:09:18;101039.20;;;20.23;26.41
77897;BME280;67092;64.282;21.056;2023-05-29T09:11:44;101036.04;;;19.97;26.59
77897;BME280;67092;64.282;21.056;2023-05-29T09:14:12;101033.82;;;20.47;26.29
77897;BME280;67092;64.282;21.056;2023-05-29T09:16:41;101029.77;;;20.53;26.01
77897;BME280;67092;64.282;21.056;2023-05-29T09:19:05;101037.52;;;20.19;26.32
77897;BME280;67092;64.282;21.056;2023-05-29T09:21:26;101032.27;;;20.46;26.06
77897;BME280;67092;64.282;21.056;2023-05-29T09:23:52;101030.21;;;20.26;26.25
77897;BME280;67092;64.282;21.056;2023-05-29T09:26:17;101030.11;;;20.08;26.41
77897;BME280;67092;64.282;21.056;2023-05-29T09:28:42;101028.02;;;20.31;26.20
77897;BME280;67092;64.282;21.056;2023-05-29T09:31:13;101035.13;;;20.24;26.24
77897;BME280;67092;64.282;21.056;2023-05-29T09:33:33;101034.12;;;20.05;26.65
77897;BME280;67092;64.282;21.056;2023-05-29T09:35:59;101030.08;;;20.25;26.50
77897;BME280;67092;64.282;21.056;2023-05-29T09:38:25;101031.63;;;20.42;26.28
77897;BME280;67092;64.282;21.056;2023-05-29T09:40:50;101025.23;;;20.18;26.30
77897;BME280;67092;64.282;21.056;2023-05-29T09:43:17;101020.69;;;20.20;26.26
77897;BME280;67092;64.282;21.056;2023-05-29T09:45:43;101014.19;;;19.84;26.58
77897;BME280;67092;64.282;21.056;2023-05-29T09:48:10;101018.11;;;20.18;26.24
77897;BME280;67092;64.282;21.056;2023-05-29T09:50:33;101017.51;;;20.23;26.18
77897;BME280;67092;64.282;21.056;2023-05-29T09:52:58;101025.32;;;20.23;26.42
77897;BME280;67092;64.282;21.056;2023-05-29T09:55:25;101018.02;;;19.94;26.42
77897;BME280;67092;64.282;21.056;2023-05-29T09:57:50;101022.60;;;20.00;26.32
77897;BME280;67092;64.282;21.056;2023-05-29T10:00:17;101018.18;;;20.17;26.39
77897;BME280;67092;64.282;21.056;2023-05-29T10:02:41;101012.69;;;20.53;25.99
77897;BME280;67092;64.282;21.056;2023-05-29T10:05:07;101013.47;;;20.25;26.05
77897;BME280;67092;64.282;21.056;2023-05-29T10:07:36;101008.09;;;20.28;25.96
77897;BME280;67092;64.282;21.056;2023-05-29T10:10:00;101008.45;;;20.03;26.11
77897;BME280;67092;64.282;21.056;2023-05-29T10:12:24;101008.72;;;20.27;25.88
77897;BME280;67092;64.282;21.056;2023-05-29T10:14:51;100999.46;;;20.09;26.06
77897;BME280;67092;64.282;21.056;2023-05-29T10:17:15;100994.09;;;20.24;25.90
77897;BME280;67092;64.282;21.056;2023-05-29T10:19:40;100998.70;;;20.31;25.79
77897;BME280;67092;64.282;21.056;2023-05-29T10:22:06;101003.57;;;20.22;25.88
77897;BME280;67092;64.282;21.056;2023-05-29T10:24:31;101006.84;;;20.12;26.22
77897;BME280;67092;64.282;21.056;2023-05-29T10:26:58;100998.42;;;20.64;25.42
77897;BME280;67092;64.282;21.056;2023-05-29T10:29:28;101001.88;;;20.08;26.12
77897;BME280;67092;64.282;21.056;2023-05-29T10:31:56;101005.50;;;21.05;25.41
77897;BME280;67092;64.282;21.056;2023-05-29T10:34:22;101002.16;;;20.98;25.17
77897;BME280;67092;64.282;21.056;2023-05-29T10:36:44;101008.11;;;20.47;25.45
77897;BME280;67092;64.282;21.056;2023-05-29T10:39:05;100999.59;;;20.22;25.61
77897;BME280;67092;64.282;21.056;2023-05-29T10:41:31;100996.06;;;21.06;24.44
77897;BME280;67092;64.282;21.056;2023-05-29T10:43:57;100983.01;;;20.39;25.05
77897;BME280;67092;64.282;21.056;2023-05-29T10:48:49;100980.03;;;20.77;25.01
77897;BME280;67092;64.282;21.056;2023-05-29T10:51:24;100983.73;;;20.39;25.37
77897;BME280;67092;64.282;21.056;2023-05-29T10:53:41;100985.51;;;19.96;25.55
77897;BME280;67092;64.282;21.056;2023-05-29T10:56:08;100979.08;;;20.53;25.03
77897;BME280;67092;64.282;21.056;2023-05-29T10:58:30;100984.21;;;20.72;24.84
77897;BME280;67092;64.282;21.056;2023-05-29T11:00:55;100973.83;;;20.13;25.16
77897;BME280;67092;64.282;21.056;2023-05-29T11:03:22;100981.30;;;20.22;25.23
77897;BME280;67092;64.282;21.056;2023-05-29T11:05:56;100974.94;;;20.61;25.03
77897;BME280;67092;64.282;21.056;2023-05-29T11:08:12;100975.91;;;20.41;25.22
77897;BME280;67092;64.282;21.056;2023-05-29T11:10:54;100974.37;;;20.80;24.60
77897;BME280;67092;64.282;21.056;2023-05-29T11:13:03;100967.33;;;20.30;25.29
77897;BME280;67092;64.282;21.056;2023-05-29T11:15:29;100965.13;;;20.16;25.18
77897;BME280;67092;64.282;21.056;2023-05-29T11:17:54;100962.48;;;20.46;24.91
77897;BME280;67092;64.282;21.056;2023-05-29T11:20:28;100961.36;;;20.20;25.17
77897;BME280;67092;64.282;21.056;2023-05-29T11:22:59;100961.20;;;20.21;25.14
77897;BME280;67092;64.282;21.056;2023-05-29T11:25:13;100963.24;;;20.16;25.15
77897;BME280;67092;64.282;21.056;2023-05-29T11:27:37;100962.66;;;20.10;25.20
77897;BME280;67092;64.282;21.056;2023-05-29T11:30:04;100964.52;;;20.07;25.20
77897;BME280;67092;64.282;21.056;2023-05-29T11:32:30;100953.36;;;19.72;25.51
77897;BME280;67092;64.282;21.056;2023-05-29T11:34:55;100958.99;;;19.74;25.27
77897;BME280;67092;64.282;21.056;2023-05-29T11:37:19;100953.08;;;20.39;24.85
77897;BME280;67092;64.282;21.056;2023-05-29T11:39:45;100955.95;;;20.85;24.61
77897;BME280;67092;64.282;21.056;2023-05-29T11:42:11;100958.46;;;20.32;25.09
77897;BME280;67092;64.282;21.056;2023-05-29T11:44:36;100956.24;;;19.99;25.14
77897;BME280;67092;64.282;21.056;2023-05-29T11:47:02;100949.69;;;20.35;25.08
77897;BME280;67092;64.282;21.056;2023-05-29T11:49:28;100947.62;;;20.13;25.00
77897;BME280;67092;64.282;21.056;2023-05-29T11:51:53;100952.38;;;20.33;25.04
77897;BME280;67092;64.282;21.056;2023-05-29T11:54:19;100960.37;;;21.02;24.50
77897;BME280;67092;64.282;21.056;2023-05-29T11:56:44;100948.96;;;20.43;24.88
77897;BME280;67092;64.282;21.056;2023-05-29T11:59:11;100935.16;;;20.67;25.05
77897;BME280;67092;64.282;21.056;2023-05-29T12:01:35;100940.70;;;20.29;25.26
77897;BME280;67092;64.282;21.056;2023-05-29T12:04:01;100936.76;;;20.61;25.05
77897;BME280;67092;64.282;21.056;2023-05-29T12:06:32;100937.93;;;20.11;25.61
77897;BME280;67092;64.282;21.056;2023-05-29T12:08:52;100940.69;;;20.51;25.28
77897;BME280;67092;64.282;21.056;2023-05-29T12:11:23;100948.22;;;20.54;25.51
77897;BME280;67092;64.282;21.056;2023-05-29T12:13:43;100941.64;;;19.97;25.92
77897;BME280;67092;64.282;21.056;2023-05-29T12:16:09;100939.42;;;20.22;25.85
77897;BME280;67092;64.282;21.056;2023-05-29T12:18:35;100939.23;;;20.34;25.47
77897;BME280;67092;64.282;21.056;2023-05-29T12:21:01;100934.28;;;20.22;25.71
77897;BME280;67092;64.282;21.056;2023-05-29T12:23:27;100932.21;;;20.69;25.24
77897;BME280;67092;64.282;21.056;2023-05-29T12:25:52;100931.97;;;20.45;25.77
77897;BME280;67092;64.282;21.056;2023-05-29T12:28:17;100922.57;;;20.00;25.97
77897;BME280;67092;64.282;21.056;2023-05-29T12:30:43;100927.66;;;20.12;25.89
77897;BME280;67092;64.282;21.056;2023-05-29T12:33:08;100933.50;;;20.23;25.85
77897;BME280;67092;64.282;21.056;2023-05-29T12:35:34;100931.55;;;20.21;26.11